Time;durP1;ratioP1;P1;durP2;ratioP2;P2;SDS_P1;SDS_P2;PMS_P1;PMS_P2;Temp;Humidity;BMP_temperature;BMP_pressure;BME280_temperature;BME280_humidity;BME280_pressure;Samples;Min_cycle;Max_cycle;Signal;HPM_P1;HPM_P2
2023/03/02 00:00:30;;;;;;;25.65;23.95;;;;;;;;;;5138716;27;20204;-87
2023/03/02 00:02:57;;;;;;;25.90;24.00;;;;;;;;;;5138373;27;20256;-88
2023/03/02 00:05:24;;;;;;;25.30;23.60;;;;;;;;;;5138805;27;20278;-88
2023/03/02 00:07:51;;;;;;;25.13;23.48;;;;;;;;;;5138895;27;20207;-88
2023/03/02 00:10:19;;;;;;;26.60;24.70;;;;;;;;;;5138703;27;20201;-87
2023/03/02 00:12:46;;;;;;;25.80;23.90;;;;;;;;;;5137613;27;20246;-88
2023/03/02 00:15:13;;;;;;;25.50;23.67;;;;;;;;;;5138468;27;20220;-87
2023/03/02 00:17:41;;;;;;;27.05;25.15;;;;;;;;;;5138646;27;20256;-88
2023/03/02 00:20:10;;;;;;;26.73;24.83;;;;;;;;;;5139069;27;20201;-88
2023/03/02 00:22:38;;;;;;;26.70;24.65;;;;;;;;;;5138118;27;20207;-88
2023/03/02 00:25:06;;;;;;;25.50;23.80;;;;;;;;;;5138264;27;20211;-88
2023/03/02 00:27:33;;;;;;;25.67;24.00;;;;;;;;;;5138412;27;20610;-88
2023/03/02 00:30:00;;;;;;;24.70;23.15;;;;;;;;;;5138394;27;20251;-88
2023/03/02 00:32:27;;;;;;;24.65;22.95;;;;;;;;;;5137858;27;20220;-88
2023/03/02 00:34:57;;;;;;;25.88;24.10;;;;;;;;;;5138193;27;20217;-88
2023/03/02 00:37:24;;;;;;;25.25;23.55;;;;;;;;;;5138265;27;20255;-88
2023/03/02 00:39:51;;;;;;;24.90;23.17;;;;;;;;;;5137788;27;20200;-87
2023/03/02 00:42:18;;;;;;;24.70;23.20;;;;;;;;;;5138300;27;20207;-88
2023/03/02 00:44:46;;;;;;;24.70;23.10;;;;;;;;;;5149595;27;20196;-88
2023/03/02 00:47:13;;;;;;;25.88;24.08;;;;;;;;;;5150252;27;20228;-88
2023/03/02 00:49:40;;;;;;;25.50;23.70;;;;;;;;;;5142954;27;20249;-87
2023/03/02 00:52:08;;;;;;;25.98;23.73;;;;;;;;;;5137644;27;20273;-88
2023/03/02 00:54:35;;;;;;;26.35;24.55;;;;;;;;;;5137688;27;20220;-88
2023/03/02 00:57:02;;;;;;;24.65;22.90;;;;;;;;;;5137995;27;20278;-88
2023/03/02 00:59:29;;;;;;;25.70;23.50;;;;;;;;;;5137804;27;20196;-87
2023/03/02 01:01:57;;;;;;;24.27;22.67;;;;;;;;;;5137605;27;20253;-88
2023/03/02 01:04:28;;;;;;;24.52;23.05;;;;;;;;;;5137932;27;20204;-87
2023/03/02 01:06:55;;;;;;;23.95;22.42;;;;;;;;;;5137146;27;20316;-87
2023/03/02 01:09:23;;;;;;;25.73;23.92;;;;;;;;;;5137713;27;20205;-87
2023/03/02 01:11:50;;;;;;;26.10;24.20;;;;;;;;;;5136952;27;20618;-87
2023/03/02 01:14:18;;;;;;;24.67;23.08;;;;;;;;;;5137492;27;20221;-87
2023/03/02 01:16:46;;;;;;;24.95;23.15;;;;;;;;;;5137539;27;20224;-87
2023/03/02 01:19:13;;;;;;;23.92;22.40;;;;;;;;;;5137794;27;20358;-88
2023/03/02 01:21:40;;;;;;;25.10;23.45;;;;;;;;;;5137135;27;20245;-87
2023/03/02 01:24:07;;;;;;;24.52;22.83;;;;;;;;;;5137859;27;20230;-87
2023/03/02 01:26:36;;;;;;;24.42;22.92;;;;;;;;;;5137316;27;20274;-88
2023/03/02 01:29:04;;;;;;;25.10;23.40;;;;;;;;;;5137320;27;20196;-88
2023/03/02 01:31:31;;;;;;;26.13;24.13;;;;;;;;;;5136438;27;20250;-88
2023/03/02 01:33:58;;;;;;;25.58;23.77;;;;;;;;;;5137038;27;20253;-87
2023/03/02 01:36:25;;;;;;;25.20;23.50;;;;;;;;;;5137011;27;20236;-88
2023/03/02 01:38:53;;;;;;;24.35;22.70;;;;;;;;;;5136847;27;20208;-88
2023/03/02 01:41:20;;;;;;;25.33;23.75;;;;;;;;;;5136826;27;20229;-88
2023/03/02 01:43:49;;;;;;;25.60;23.92;;;;;;;;;;5136957;27;20212;-88
2023/03/02 01:46:16;;;;;;;25.67;23.92;;;;;;;;;;5136894;27;20224;-87
2023/03/02 01:48:46;;;;;;;26.35;24.55;;;;;;;;;;5136492;27;20562;-87
2023/03/02 01:51:14;;;;;;;25.70;23.85;;;;;;;;;;5136721;27;20292;-89
2023/03/02 01:53:45;;;;;;;26.23;24.42;;;;;;;;;;5136553;27;20619;-87
2023/03/02 01:56:13;;;;;;;25.70;23.90;;;;;;;;;;5136092;27;20225;-88
2023/03/02 01:58:41;;;;;;;27.83;25.40;;;;;;;;;;5136606;27;20722;-88
2023/03/02 02:01:14;;;;;;;25.70;23.80;;;;;;;;;;5136605;27;20201;-87
2023/03/02 02:03:42;;;;;;;25.70;23.90;;;;;;;;;;5136429;27;20208;-87
2023/03/02 02:06:16;;;;;;;25.40;23.77;;;;;;;;;;5136651;27;20228;-88
2023/03/02 02:08:45;;;;;;;26.20;24.50;;;;;;;;;;5136541;27;20257;-88
2023/03/02 02:11:13;;;;;;;26.88;24.88;;;;;;;;;;5136441;27;20201;-89
2023/03/02 02:13:40;;;;;;;26.92;24.92;;;;;;;;;;5135680;27;20210;-87
2023/03/02 02:16:07;;;;;;;26.55;24.75;;;;;;;;;;5136029;27;20232;-88
2023/03/02 02:18:38;;;;;;;26.33;24.35;;;;;;;;;;5135889;27;20534;-88
2023/03/02 02:21:05;;;;;;;26.88;25.17;;;;;;;;;;5136165;27;20204;-88
2023/03/02 02:23:36;;;;;;;26.38;24.65;;;;;;;;;;5135819;27;20541;-88
2023/03/02 02:26:08;;;;;;;26.52;24.75;;;;;;;;;;5135914;27;20220;-87
2023/03/02 02:28:38;;;;;;;28.48;26.48;;;;;;;;;;5135836;27;20234;-88
2023/03/02 02:31:06;;;;;;;26.98;24.98;;;;;;;;;;5135821;27;20197;-88
2023/03/02 02:33:34;;;;;;;27.88;25.77;;;;;;;;;;5135579;27;20204;-88
2023/03/02 02:36:05;;;;;;;26.95;25.00;;;;;;;;;;5135903;27;20232;-87
2023/03/02 02:38:32;;;;;;;26.02;23.98;;;;;;;;;;5136358;27;20255;-88
2023/03/02 02:41:00;;;;;;;25.55;23.65;;;;;;;;;;5135888;27;20202;-88
2023/03/02 02:43:29;;;;;;;26.13;24.40;;;;;;;;;;5135087;27;20204;-88
2023/03/02 02:46:05;;;;;;;25.40;23.70;;;;;;;;;;5135397;27;20220;-87
2023/03/02 02:48:32;;;;;;;26.65;24.90;;;;;;;;;;5135956;27;20238;-88
2023/03/02 02:51:01;;;;;;;25.50;23.67;;;;;;;;;;5135883;27;20609;-88
2023/03/02 02:53:29;;;;;;;26.05;24.33;;;;;;;;;;5135383;27;20299;-87
2023/03/02 02:56:12;;;;;;;25.55;23.75;;;;;;;;;;5135823;27;20227;-88
2023/03/02 02:58:43;;;;;;;24.80;23.10;;;;;;;;;;5135665;27;20196;-88
2023/03/02 03:01:13;;;;;;;25.52;23.73;;;;;;;;;;5136282;27;20195;-89
2023/03/02 03:03:40;;;;;;;25.50;23.80;;;;;;;;;;5134683;27;20189;-87
2023/03/02 03:06:08;;;;;;;26.17;24.45;;;;;;;;;;5134998;27;20610;-88
2023/03/02 03:08:55;;;;;;;24.75;22.95;;;;;;;;;;5135051;27;20678;-88
2023/03/02 03:11:25;;;;;;;26.35;24.27;;;;;;;;;;5134936;28;20231;-89
2023/03/02 03:13:54;;;;;;;25.73;24.02;;;;;;;;;;5134988;28;20280;-88
2023/03/02 03:16:22;;;;;;;26.52;24.60;;;;;;;;;;5135147;28;20228;-88
2023/03/02 03:18:50;;;;;;;25.90;24.02;;;;;;;;;;5135179;28;20245;-88
2023/03/02 03:21:17;;;;;;;25.20;23.50;;;;;;;;;;5135204;28;20192;-88
2023/03/02 03:23:44;;;;;;;26.15;24.35;;;;;;;;;;5134948;28;20277;-88
2023/03/02 03:26:11;;;;;;;26.00;24.02;;;;;;;;;;5135061;28;20561;-88
2023/03/02 03:28:38;;;;;;;26.65;24.65;;;;;;;;;;5134954;28;20244;-88
2023/03/02 03:31:07;;;;;;;26.23;24.52;;;;;;;;;;5135249;28;20601;-87
2023/03/02 03:33:35;;;;;;;26.45;24.45;;;;;;;;;;5134573;28;20277;-88
2023/03/02 03:36:02;;;;;;;26.27;24.17;;;;;;;;;;5135035;28;20231;-88
2023/03/02 03:38:30;;;;;;;26.38;24.67;;;;;;;;;;5135575;28;20234;-87
2023/03/02 03:40:57;;;;;;;27.77;25.50;;;;;;;;;;5135281;28;20208;-86
2023/03/02 03:43:24;;;;;;;27.15;24.80;;;;;;;;;;5134414;28;20208;-88
2023/03/02 03:46:18;;;;;;;27.55;25.40;;;;;;;;;;5135691;28;20234;-88
2023/03/02 03:48:46;;;;;;;27.88;25.75;;;;;;;;;;5135355;28;20203;-88
2023/03/02 03:51:13;;;;;;;25.30;23.65;;;;;;;;;;5134674;28;20204;-88
2023/03/02 03:53:40;;;;;;;27.13;25.23;;;;;;;;;;5134444;28;20619;-87
2023/03/02 03:56:08;;;;;;;25.70;23.83;;;;;;;;;;5134488;28;20275;-87
2023/03/02 03:58:35;;;;;;;25.70;23.83;;;;;;;;;;5134693;28;20195;-88
2023/03/02 04:01:02;;;;;;;26.33;24.42;;;;;;;;;;5134904;28;20202;-88
2023/03/02 04:03:32;;;;;;;26.42;24.50;;;;;;;;;;5134176;28;20209;-88
2023/03/02 04:09:04;;;;;;;27.35;25.33;;;;;;;;;;5134933;28;20164;-87
2023/03/02 04:11:31;;;;;;;26.00;24.08;;;;;;;;;;5134782;28;20199;-88
2023/03/02 04:13:58;;;;;;;26.83;24.80;;;;;;;;;;5134734;28;20576;-88
2023/03/02 04:16:25;;;;;;;25.10;23.35;;;;;;;;;;5134537;28;20223;-88
2023/03/02 04:18:53;;;;;;;25.92;24.17;;;;;;;;;;5137114;27;20201;-87
2023/03/02 04:21:20;;;;;;;27.35;24.85;;;;;;;;;;5138174;27;20201;-89
2023/03/02 04:23:47;;;;;;;26.30;24.27;;;;;;;;;;5138316;27;20200;-88
2023/03/02 04:26:15;;;;;;;27.30;25.27;;;;;;;;;;5138427;27;20222;-88
2023/03/02 04:28:43;;;;;;;26.60;24.67;;;;;;;;;;5138791;27;20228;-88
2023/03/02 04:31:10;;;;;;;26.88;24.80;;;;;;;;;;5138625;27;20615;-88
2023/03/02 04:33:37;;;;;;;25.73;24.05;;;;;;;;;;5138407;27;20200;-88
2023/03/02 04:36:05;;;;;;;26.75;24.95;;;;;;;;;;5138491;27;20256;-88
2023/03/02 04:38:32;;;;;;;25.63;23.73;;;;;;;;;;5137958;27;20226;-88
2023/03/02 04:40:59;;;;;;;25.73;23.95;;;;;;;;;;5139155;27;20208;-88
2023/03/02 04:43:31;;;;;;;26.40;24.45;;;;;;;;;;5137435;27;20215;-88
2023/03/02 04:45:58;;;;;;;27.45;25.30;;;;;;;;;;5138070;27;20240;-88
2023/03/02 04:48:26;;;;;;;27.38;25.27;;;;;;;;;;5138194;27;20197;-88
2023/03/02 04:50:53;;;;;;;26.50;24.70;;;;;;;;;;5138037;27;20201;-88
2023/03/02 04:53:20;;;;;;;27.10;24.90;;;;;;;;;;5137496;27;20211;-88
2023/03/02 04:55:47;;;;;;;27.13;25.30;;;;;;;;;;5137858;27;20573;-88
2023/03/02 04:58:14;;;;;;;26.05;24.30;;;;;;;;;;5137827;27;20202;-88
2023/03/02 05:00:43;;;;;;;28.17;25.73;;;;;;;;;;5137796;27;20204;-88
2023/03/02 05:03:10;;;;;;;26.20;24.20;;;;;;;;;;5137248;27;20200;-88
2023/03/02 05:05:37;;;;;;;26.30;24.48;;;;;;;;;;5148838;27;20217;-88
2023/03/02 05:08:04;;;;;;;26.38;24.50;;;;;;;;;;5153725;27;20199;-88
2023/03/02 05:10:31;;;;;;;26.00;24.13;;;;;;;;;;5151257;27;20229;-88
2023/03/02 05:13:01;;;;;;;26.45;24.60;;;;;;;;;;5136864;27;20259;-88
2023/03/02 05:15:29;;;;;;;27.48;25.42;;;;;;;;;;5137793;27;20214;-88
2023/03/02 05:17:57;;;;;;;27.70;25.65;;;;;;;;;;5137238;27;20603;-88
2023/03/02 05:20:26;;;;;;;27.92;25.60;;;;;;;;;;5137998;27;20261;-88
2023/03/02 05:22:54;;;;;;;26.50;24.50;;;;;;;;;;5136986;27;20211;-88
2023/03/02 05:25:35;;;;;;;27.27;25.13;;;;;;;;;;5137343;27;20222;-88
2023/03/02 05:28:02;;;;;;;26.13;24.23;;;;;;;;;;5137481;27;20225;-88
2023/03/02 05:30:31;;;;;;;25.85;24.05;;;;;;;;;;5136041;27;20237;-87
2023/03/02 05:32:59;;;;;;;27.00;24.90;;;;;;;;;;5136580;27;20211;-88
2023/03/02 05:35:26;;;;;;;26.90;24.67;;;;;;;;;;5136707;27;20275;-88
2023/03/02 05:37:53;;;;;;;27.20;25.30;;;;;;;;;;5137016;27;20640;-88
2023/03/02 05:40:21;;;;;;;26.48;24.55;;;;;;;;;;5136400;27;20193;-88
2023/03/02 05:42:49;;;;;;;26.40;24.52;;;;;;;;;;5136140;27;20184;-88
2023/03/02 05:45:21;;;;;;;25.92;23.95;;;;;;;;;;5136979;27;20280;-88
2023/03/02 05:47:48;;;;;;;25.95;24.15;;;;;;;;;;5136909;27;20204;-88
2023/03/02 05:50:17;;;;;;;26.42;24.55;;;;;;;;;;5136855;27;20641;-88
2023/03/02 05:52:45;;;;;;;26.77;24.75;;;;;;;;;;5136152;27;20248;-87
2023/03/02 05:55:12;;;;;;;27.05;25.08;;;;;;;;;;5136743;27;20231;-88
2023/03/02 05:57:39;;;;;;;26.83;24.83;;;;;;;;;;5136583;27;20222;-88
2023/03/02 06:00:07;;;;;;;27.30;25.20;;;;;;;;;;5136734;27;20254;-88
2023/03/02 06:02:34;;;;;;;26.42;24.23;;;;;;;;;;5136088;27;20206;-88
2023/03/02 06:05:01;;;;;;;26.85;24.92;;;;;;;;;;5136906;27;20717;-89
2023/03/02 06:07:29;;;;;;;26.65;24.55;;;;;;;;;;5137424;27;20600;-88
2023/03/02 06:09:57;;;;;;;28.95;26.75;;;;;;;;;;5136369;27;20203;-88
2023/03/02 06:12:24;;;;;;;26.17;24.38;;;;;;;;;;5135659;27;20280;-88
2023/03/02 06:14:51;;;;;;;25.83;23.80;;;;;;;;;;5135893;27;20569;-88
2023/03/02 06:17:18;;;;;;;27.83;25.63;;;;;;;;;;5136171;27;20222;-88
2023/03/02 06:19:45;;;;;;;26.45;24.45;;;;;;;;;;5136210;27;20215;-88
2023/03/02 06:22:12;;;;;;;27.88;25.70;;;;;;;;;;5139931;27;20604;-82
2023/03/02 06:24:40;;;;;;;27.73;25.65;;;;;;;;;;5140612;27;20205;-81
2023/03/02 06:27:07;;;;;;;27.65;25.55;;;;;;;;;;5139974;27;20759;-86
2023/03/02 06:29:34;;;;;;;28.00;25.75;;;;;;;;;;5136449;27;20256;-88
2023/03/02 06:32:01;;;;;;;26.73;24.50;;;;;;;;;;5135531;27;20208;-88
2023/03/02 06:34:28;;;;;;;27.30;25.25;;;;;;;;;;5138486;27;20617;-81
2023/03/02 06:36:55;;;;;;;26.27;24.35;;;;;;;;;;5139720;27;20225;-82
2023/03/02 06:39:22;;;;;;;27.10;25.10;;;;;;;;;;5139943;27;20717;-81
2023/03/02 06:41:51;;;;;;;26.00;24.15;;;;;;;;;;5138974;27;20207;-82
2023/03/02 06:44:18;;;;;;;26.92;24.75;;;;;;;;;;5140055;27;20205;-81
2023/03/02 06:46:45;;;;;;;26.38;24.35;;;;;;;;;;5139558;27;20223;-81
2023/03/02 06:49:12;;;;;;;26.88;24.50;;;;;;;;;;5139824;27;20265;-82
2023/03/02 06:51:39;;;;;;;26.67;24.77;;;;;;;;;;5138858;27;20595;-81
2023/03/02 06:54:07;;;;;;;27.45;25.15;;;;;;;;;;5140025;27;20200;-81
2023/03/02 06:56:34;;;;;;;26.27;24.27;;;;;;;;;;5140122;27;20232;-81
2023/03/02 06:59:02;;;;;;;26.85;24.15;;;;;;;;;;5139271;27;20201;-82
2023/03/02 07:01:31;;;;;;;26.10;24.30;;;;;;;;;;5139273;27;20251;-82
2023/03/02 07:03:58;;;;;;;26.83;24.92;;;;;;;;;;5139756;27;20296;-80
2023/03/02 07:06:25;;;;;;;26.38;24.38;;;;;;;;;;5139459;27;20220;-81
2023/03/02 07:08:52;;;;;;;26.48;24.50;;;;;;;;;;5140233;27;20265;-81
2023/03/02 07:11:19;;;;;;;26.60;24.88;;;;;;;;;;5139744;28;20212;-82
2023/03/02 07:13:46;;;;;;;26.80;24.75;;;;;;;;;;5139111;28;20204;-81
2023/03/02 07:16:16;;;;;;;26.95;24.80;;;;;;;;;;5139339;28;20248;-81
2023/03/02 07:18:42;;;;;;;28.73;26.48;;;;;;;;;;5140172;28;20560;-81
2023/03/02 07:21:09;;;;;;;27.90;25.60;;;;;;;;;;5139898;28;20207;-81
2023/03/02 07:23:36;;;;;;;26.55;24.55;;;;;;;;;;5139429;28;20197;-81
2023/03/02 07:26:07;;;;;;;28.15;26.05;;;;;;;;;;5139610;28;20220;-82
2023/03/02 07:28:34;;;;;;;27.05;25.00;;;;;;;;;;5139971;28;20185;-81
2023/03/02 07:31:01;;;;;;;28.17;25.67;;;;;;;;;;5139781;28;20203;-81
2023/03/02 07:33:29;;;;;;;26.02;24.08;;;;;;;;;;5138836;28;20235;-81
2023/03/02 07:35:56;;;;;;;28.00;25.98;;;;;;;;;;5139171;28;20730;-81
2023/03/02 07:38:23;;;;;;;27.17;25.08;;;;;;;;;;5140175;28;20571;-81
2023/03/02 07:40:50;;;;;;;28.55;26.35;;;;;;;;;;5139597;28;20208;-81
2023/03/02 07:43:18;;;;;;;30.27;27.70;;;;;;;;;;5138144;28;20656;-81
2023/03/02 07:45:45;;;;;;;30.38;28.00;;;;;;;;;;5138933;28;20227;-82
2023/03/02 07:48:12;;;;;;;29.05;26.85;;;;;;;;;;5138952;28;20204;-81
2023/03/02 07:50:40;;;;;;;29.30;27.08;;;;;;;;;;5139092;28;20232;-82
2023/03/02 07:53:07;;;;;;;26.40;24.52;;;;;;;;;;5139619;27;20280;-82
2023/03/02 07:55:34;;;;;;;30.45;28.15;;;;;;;;;;5142540;27;20562;-82
2023/03/02 07:58:01;;;;;;;29.42;27.27;;;;;;;;;;5142126;27;20228;-81
2023/03/02 08:00:28;;;;;;;29.85;27.40;;;;;;;;;;5142137;27;20207;-82
2023/03/02 08:02:55;;;;;;;30.38;27.67;;;;;;;;;;5141450;27;20254;-83
2023/03/02 08:05:22;;;;;;;32.28;29.58;;;;;;;;;;5141332;27;20777;-82
2023/03/02 08:07:50;;;;;;;32.08;29.33;;;;;;;;;;5142627;27;20200;-82
2023/03/02 08:10:17;;;;;;;30.67;28.00;;;;;;;;;;5141710;27;20248;-81
2023/03/02 08:12:44;;;;;;;28.15;26.00;;;;;;;;;;5142049;27;20776;-81
2023/03/02 08:15:12;;;;;;;31.48;28.80;;;;;;;;;;5141861;27;20217;-82
2023/03/02 08:17:39;;;;;;;29.80;27.33;;;;;;;;;;5141607;27;20639;-82
2023/03/02 08:20:07;;;;;;;30.52;28.10;;;;;;;;;;5142157;27;20258;-81
2023/03/02 08:22:36;;;;;;;29.73;27.13;;;;;;;;;;5140761;27;20196;-81
2023/03/02 08:25:06;;;;;;;29.38;26.92;;;;;;;;;;5141580;27;20236;-82
2023/03/02 08:27:33;;;;;;;29.20;26.73;;;;;;;;;;5141299;27;20199;-80
2023/03/02 08:30:00;;;;;;;29.83;27.33;;;;;;;;;;5141952;27;20253;-81
2023/03/02 08:32:27;;;;;;;29.83;27.38;;;;;;;;;;5141797;27;20648;-81
2023/03/02 08:34:54;;;;;;;29.83;27.50;;;;;;;;;;5141610;27;20205;-81
2023/03/02 08:37:20;;;;;;;30.55;28.15;;;;;;;;;;5142130;27;20257;-81
2023/03/02 08:39:48;;;;;;;29.20;27.00;;;;;;;;;;5141599;27;20305;-81
2023/03/02 08:42:16;;;;;;;31.45;28.48;;;;;;;;;;5141103;27;20236;-81
2023/03/02 08:44:43;;;;;;;31.52;28.55;;;;;;;;;;5142054;27;20208;-81
2023/03/02 08:47:10;;;;;;;29.08;26.63;;;;;;;;;;5142055;27;20221;-81
2023/03/02 08:49:37;;;;;;;29.65;27.25;;;;;;;;;;5141338;27;20193;-81
2023/03/02 08:52:04;;;;;;;31.08;28.38;;;;;;;;;;5140948;27;20200;-81
2023/03/02 08:54:33;;;;;;;27.67;25.63;;;;;;;;;;5141953;27;20205;-82
2023/03/02 08:57:00;;;;;;;29.60;27.38;;;;;;;;;;5141080;27;20263;-82
2023/03/02 08:59:28;;;;;;;28.30;26.38;;;;;;;;;;5142363;27;20197;-81
2023/03/02 09:01:55;;;;;;;28.83;26.60;;;;;;;;;;5140682;27;20245;-82
2023/03/02 09:04:22;;;;;;;30.20;27.85;;;;;;;;;;5140833;27;20253;-83
2023/03/02 09:06:49;;;;;;;28.88;26.60;;;;;;;;;;5138868;27;20239;-82
2023/03/02 09:09:16;;;;;;;29.15;26.90;;;;;;;;;;5141296;27;20255;-81
2023/03/02 09:11:45;;;;;;;28.67;26.48;;;;;;;;;;5141369;27;20212;-82
2023/03/02 09:14:12;;;;;;;28.88;26.35;;;;;;;;;;5142525;27;20213;-83
2023/03/02 09:16:40;;;;;;;27.85;25.70;;;;;;;;;;5143709;27;20305;-83
2023/03/02 09:19:07;;;;;;;26.90;24.80;;;;;;;;;;5144232;27;20559;-82
2023/03/02 09:21:34;;;;;;;29.15;26.85;;;;;;;;;;5141931;27;20200;-83
2023/03/02 09:24:09;;;;;;;30.23;27.60;;;;;;;;;;5142151;27;20249;-82
2023/03/02 09:26:37;;;;;;;30.08;27.77;;;;;;;;;;5141896;27;20224;-82
2023/03/02 09:29:05;;;;;;;29.20;27.02;;;;;;;;;;5155132;27;20260;-83
2023/03/02 09:31:32;;;;;;;31.25;28.45;;;;;;;;;;5153644;27;20206;-83
2023/03/02 09:34:01;;;;;;;30.98;28.15;;;;;;;;;;5148576;27;20242;-83
2023/03/02 09:36:30;;;;;;;33.22;30.38;;;;;;;;;;5141942;27;20225;-83
2023/03/02 09:38:57;;;;;;;31.17;28.35;;;;;;;;;;5142921;27;20201;-82
2023/03/02 09:41:31;;;;;;;31.92;29.27;;;;;;;;;;5141357;27;20254;-82
2023/03/02 09:44:02;;;;;;;33.88;30.67;;;;;;;;;;5141217;27;20664;-83
2023/03/02 09:46:31;;;;;;;32.15;29.60;;;;;;;;;;5141424;27;20221;-82
2023/03/02 09:49:07;;;;;;;31.00;28.52;;;;;;;;;;5141190;27;20201;-82
2023/03/02 09:51:38;;;;;;;31.48;29.13;;;;;;;;;;5140401;27;20208;-86
2023/03/02 09:54:08;;;;;;;31.60;28.98;;;;;;;;;;5141380;27;20209;-81
2023/03/02 09:56:36;;;;;;;30.98;28.45;;;;;;;;;;5140759;27;20223;-81
2023/03/02 09:59:07;;;;;;;33.05;30.10;;;;;;;;;;5140298;27;20209;-81
2023/03/02 10:01:36;;;;;;;31.55;28.95;;;;;;;;;;5140006;27;20185;-81
2023/03/02 10:04:09;;;;;;;30.13;27.77;;;;;;;;;;5139852;27;20541;-81
2023/03/02 10:06:36;;;;;;;32.05;29.60;;;;;;;;;;5139923;27;20217;-80
2023/03/02 10:09:04;;;;;;;31.73;29.17;;;;;;;;;;5139218;27;20239;-82
2023/03/02 10:11:36;;;;;;;31.88;29.48;;;;;;;;;;5127383;27;20687;-81
2023/03/02 10:14:07;;;;;;;32.22;29.42;;;;;;;;;;5134724;27;20258;-91
2023/03/02 10:16:37;;;;;;;33.22;30.42;;;;;;;;;;5138222;27;20221;-87
2023/03/02 10:19:11;;;;;;;32.78;29.98;;;;;;;;;;5136234;27;20277;-88
2023/03/02 10:21:40;;;;;;;31.77;28.58;;;;;;;;;;5136980;27;20185;-83
2023/03/02 10:24:13;;;;;;;31.50;28.75;;;;;;;;;;5140956;27;20193;-86
2023/03/02 10:26:42;;;;;;;30.73;28.15;;;;;;;;;;5139705;27;20746;-85
2023/03/02 10:29:17;;;;;;;32.40;29.52;;;;;;;;;;5138308;27;20197;-86
2023/03/02 10:31:44;;;;;;;30.60;28.20;;;;;;;;;;5139687;27;20188;-83
2023/03/02 10:34:13;;;;;;;32.70;30.13;;;;;;;;;;5139132;27;20734;-88
2023/03/02 10:36:42;;;;;;;34.22;31.42;;;;;;;;;;5137816;27;20225;-86
2023/03/02 10:39:13;;;;;;;32.53;30.02;;;;;;;;;;5141230;27;20559;-86
2023/03/02 10:41:44;;;;;;;33.28;30.58;;;;;;;;;;5139470;27;20594;-82
2023/03/02 10:44:15;;;;;;;34.75;32.00;;;;;;;;;;5140330;27;20185;-82
2023/03/02 10:46:45;;;;;;;33.53;30.83;;;;;;;;;;5139754;27;20271;-81
2023/03/02 10:49:26;;;;;;;32.72;30.35;;;;;;;;;;5138667;27;20205;-80
2023/03/02 10:51:57;;;;;;;31.30;28.55;;;;;;;;;;5139131;27;20227;-82
2023/03/02 10:54:24;;;;;;;31.38;28.75;;;;;;;;;;5143461;27;20285;-81
2023/03/02 10:56:53;;;;;;;30.38;27.92;;;;;;;;;;5137376;27;20224;-78
2023/03/02 10:59:31;;;;;;;30.33;28.02;;;;;;;;;;5137629;27;20256;-80
2023/03/02 11:01:59;;;;;;;33.53;30.75;;;;;;;;;;5136774;27;20211;-83
2023/03/02 11:04:27;;;;;;;30.50;27.90;;;;;;;;;;5140075;27;20207;-83
2023/03/02 11:06:54;;;;;;;32.92;30.00;;;;;;;;;;5139101;27;20696;-82
2023/03/02 11:09:21;;;;;;;32.15;29.65;;;;;;;;;;5138955;27;20208;-83
2023/03/02 11:11:50;;;;;;;33.08;29.85;;;;;;;;;;5140456;28;20227;-84
2023/03/02 11:14:18;;;;;;;32.60;30.05;;;;;;;;;;5136607;28;20691;-88
2023/03/02 11:16:45;;;;;;;32.75;29.95;;;;;;;;;;5135278;28;20262;-87
2023/03/02 11:19:14;;;;;;;32.38;29.50;;;;;;;;;;5138556;28;20225;-87
2023/03/02 11:21:45;;;;;;;30.00;27.37;;;;;;;;;;5134813;28;20190;-85
2023/03/02 11:24:14;;;;;;;32.00;29.30;;;;;;;;;;5137948;28;20414;-80
2023/03/02 11:26:46;;;;;;;31.15;28.65;;;;;;;;;;5138451;27;20243;-82
2023/03/02 11:29:19;;;;;;;32.88;30.15;;;;;;;;;;5143671;27;20194;-82
2023/03/02 11:31:47;;;;;;;32.20;29.58;;;;;;;;;;5142906;27;20185;-81
2023/03/02 11:34:22;;;;;;;33.78;31.00;;;;;;;;;;5143376;27;20189;-83
2023/03/02 11:36:54;;;;;;;33.47;30.43;;;;;;;;;;5142121;27;20273;-91
2023/03/02 11:39:25;;;;;;;30.15;27.63;;;;;;;;;;5141899;27;20494;-92
2023/03/02 11:41:53;;;;;;;31.67;28.75;;;;;;;;;;5142840;27;20626;-90
2023/03/02 11:44:22;;;;;;;35.25;31.85;;;;;;;;;;5140150;27;20264;-91
2023/03/02 11:46:51;;;;;;;34.00;31.05;;;;;;;;;;5140820;27;20235;-87
2023/03/02 11:49:22;;;;;;;32.50;30.00;;;;;;;;;;5140370;27;20193;-89
2023/03/02 11:51:56;;;;;;;33.07;30.37;;;;;;;;;;5140087;27;20835;-89
2023/03/02 11:54:31;;;;;;;34.30;31.38;;;;;;;;;;5139797;27;20522;-89
2023/03/02 11:56:59;;;;;;;35.85;32.20;;;;;;;;;;5140677;27;20225;-79
2023/03/02 11:59:27;;;;;;;32.50;29.70;;;;;;;;;;5143051;27;20285;-86
2023/03/02 12:01:55;;;;;;;32.03;29.13;;;;;;;;;;5141635;27;20519;-85
2023/03/02 12:04:31;;;;;;;33.10;30.20;;;;;;;;;;5143623;27;20415;-85
2023/03/02 12:06:59;;;;;;;34.05;31.20;;;;;;;;;;5142504;27;20221;-85
2023/03/02 12:09:29;;;;;;;34.40;31.48;;;;;;;;;;5143148;27;20205;-85
2023/03/02 12:11:58;;;;;;;31.73;29.25;;;;;;;;;;5142904;27;20201;-85
2023/03/02 12:14:28;;;;;;;33.28;30.58;;;;;;;;;;5143268;27;20633;-85
2023/03/02 12:17:04;;;;;;;31.52;29.02;;;;;;;;;;5140634;27;20757;-88
2023/03/02 12:19:40;;;;;;;30.80;28.20;;;;;;;;;;5140069;27;20600;-86
2023/03/02 12:22:11;;;;;;;30.60;27.58;;;;;;;;;;5141430;27;20530;-81
2023/03/02 12:24:39;;;;;;;30.83;28.43;;;;;;;;;;5141868;27;20209;-85
2023/03/02 12:27:06;;;;;;;31.52;28.63;;;;;;;;;;5144212;27;20447;-85
2023/03/02 12:29:43;;;;;;;31.42;28.83;;;;;;;;;;5143845;27;20227;-86
2023/03/02 12:32:12;;;;;;;31.00;28.37;;;;;;;;;;5139358;27;20286;-87
2023/03/02 12:34:42;;;;;;;32.13;29.33;;;;;;;;;;5139789;27;20402;-86
2023/03/02 12:37:16;;;;;;;30.35;27.80;;;;;;;;;;5138781;27;20455;-88
2023/03/02 12:40:00;;;;;;;31.40;28.65;;;;;;;;;;5138294;27;20245;-86
2023/03/02 12:42:34;;;;;;;29.00;26.80;;;;;;;;;;5140310;27;20185;-86
2023/03/02 12:45:05;;;;;;;31.85;29.05;;;;;;;;;;5138218;27;20498;-87
2023/03/02 12:47:32;;;;;;;35.08;32.30;;;;;;;;;;5138910;27;20595;-87
2023/03/02 12:50:01;;;;;;;31.05;28.50;;;;;;;;;;5139471;27;20201;-86
2023/03/02 12:52:31;;;;;;;33.55;30.77;;;;;;;;;;5138366;27;20267;-88
2023/03/02 12:55:02;;;;;;;32.15;29.42;;;;;;;;;;5138360;27;20691;-87
2023/03/02 12:57:30;;;;;;;32.05;29.35;;;;;;;;;;5137809;27;20206;-87
2023/03/02 12:59:58;;;;;;;31.33;28.70;;;;;;;;;;5138092;27;20208;-89
2023/03/02 13:02:26;;;;;;;32.85;30.08;;;;;;;;;;5138305;27;20437;-87
2023/03/02 13:04:54;;;;;;;34.00;30.90;;;;;;;;;;5138667;27;20202;-87
2023/03/02 13:07:23;;;;;;;29.87;27.50;;;;;;;;;;5139023;27;20439;-87
2023/03/02 13:09:53;;;;;;;32.55;29.65;;;;;;;;;;5139285;27;20405;-87
2023/03/02 13:12:20;;;;;;;34.47;31.30;;;;;;;;;;5139803;27;20206;-86
2023/03/02 13:14:50;;;;;;;36.30;32.80;;;;;;;;;;5141355;27;20422;-86
2023/03/02 13:17:21;;;;;;;33.23;30.10;;;;;;;;;;5141331;27;20935;-86
2023/03/02 13:19:49;;;;;;;31.70;29.10;;;;;;;;;;5140239;27;20467;-87
2023/03/02 13:22:16;;;;;;;33.00;29.87;;;;;;;;;;5138659;27;20494;-81
2023/03/02 13:24:49;;;;;;;33.10;30.10;;;;;;;;;;5146194;27;20827;-80
2023/03/02 13:27:18;;;;;;;31.73;29.03;;;;;;;;;;5148634;27;20462;-80
2023/03/02 13:29:45;;;;;;;33.17;30.27;;;;;;;;;;5146415;27;20839;-80
2023/03/02 13:32:20;;;;;;;34.13;30.93;;;;;;;;;;5137807;27;20509;-83
2023/03/02 13:34:49;;;;;;;28.90;26.60;;;;;;;;;;5128620;27;20481;-83
2023/03/02 13:37:20;;;;;;;33.73;30.93;;;;;;;;;;5134614;27;20426;-85
2023/03/02 13:39:54;;;;;;;33.43;30.40;;;;;;;;;;5149978;27;20497;-85
2023/03/02 13:42:27;;;;;;;35.33;31.90;;;;;;;;;;5151240;27;20405;-87
2023/03/02 13:45:17;;;;;;;32.63;29.83;;;;;;;;;;5150489;27;20417;-85
2023/03/02 13:47:44;;;;;;;34.77;31.63;;;;;;;;;;5136510;27;20417;-85
2023/03/02 13:50:17;;;;;;;34.20;30.97;;;;;;;;;;5139120;27;20448;-81
2023/03/02 13:52:44;;;;;;;33.90;30.80;;;;;;;;;;5144262;27;20445;-80
2023/03/02 13:55:13;;;;;;;33.00;30.03;;;;;;;;;;5153091;27;20439;-82
2023/03/02 13:57:44;;;;;;;32.87;29.97;;;;;;;;;;5152624;27;20444;-81
2023/03/02 14:00:12;;;;;;;32.00;29.20;;;;;;;;;;5149437;27;20462;-80
2023/03/02 14:02:39;;;;;;;32.40;29.60;;;;;;;;;;5147996;27;20474;-86
2023/03/02 14:05:06;;;;;;;32.13;29.40;;;;;;;;;;5151985;27;20447;-86
2023/03/02 14:07:33;;;;;;;30.90;28.50;;;;;;;;;;5150808;27;20504;-82
2023/03/02 14:10:00;;;;;;;31.03;28.30;;;;;;;;;;5151466;27;20469;-86
2023/03/02 14:12:29;;;;;;;31.67;29.07;;;;;;;;;;5142696;27;20459;-81
2023/03/02 14:14:58;;;;;;;32.60;29.80;;;;;;;;;;5142510;27;20460;-86
2023/03/02 14:17:26;;;;;;;32.77;30.07;;;;;;;;;;5142788;27;20421;-77
2023/03/02 14:19:54;;;;;;;34.63;31.53;;;;;;;;;;5135366;27;20449;-77
2023/03/02 14:22:22;;;;;;;33.40;30.63;;;;;;;;;;5135273;27;20544;-78
2023/03/02 14:24:49;;;;;;;34.08;30.98;;;;;;;;;;5136827;27;20816;-85
2023/03/02 14:27:16;;;;;;;35.50;32.43;;;;;;;;;;5144352;27;20213;-84